Time;durP1;ratioP1;P1;durP2;ratioP2;P2;SDS_P1;SDS_P2;PMS_P1;PMS_P2;Temp;Humidity;BMP_temperature;BMP_pressure;BME280_temperature;BME280_humidity;BME280_pressure;Samples;Min_cycle;Max_cycle;Signal;HPM_P1;HPM_P2
2021/03/15 00:00:53;;;;;;;18.33;13.40;;;281.60;1945.60;;;;;;5071678;28;20024;-64
2021/03/15 00:03:19;;;;;;;20.30;14.85;;;281.60;1996.80;;;;;;5071200;28;20496;-66
2021/03/15 00:05:45;;;;;;;21.63;15.02;;;281.80;1945.60;;;;;;5071462;28;20064;-67
2021/03/15 00:08:11;;;;;;;20.50;14.65;;;281.90;1945.60;;;;;;5071427;28;20115;-67
2021/03/15 00:10:37;;;;;;;18.70;12.85;;;281.70;1945.60;;;;;;5058819;28;20103;-67
2021/03/15 00:13:04;;;;;;;15.55;12.95;;;256.70;1971.20;;;;;;5071777;28;20363;-63
2021/03/15 00:15:30;;;;;;;18.20;12.20;;;;;;;;;;5071169;28;20032;-68
2021/03/15 00:17:56;;;;;;;13.68;9.70;;;;;;;;;;5074060;28;20025;-66
2021/03/15 00:20:23;;;;;;;14.38;11.02;;;256.80;1945.60;;;;;;5071005;28;20029;-67
2021/03/15 00:22:49;;;;;;;12.57;9.52;;;256.70;1945.60;;;;;;5071674;28;20035;-63
2021/03/15 00:25:17;;;;;;;19.80;12.10;;;256.80;1920.00;;;;;;5071271;28;20074;-65
2021/03/15 00:27:43;;;;;;;18.60;13.27;;;256.80;1920.00;;;;;;5071407;28;20020;-65
2021/03/15 00:30:12;;;;;;;13.52;9.38;;;281.60;1945.60;;;;;;5071101;28;20028;-64
2021/03/15 00:32:38;;;;;;;18.40;13.23;;;256.80;1920.00;;;;;;5071233;28;20009;-67
2021/03/15 00:35:07;;;;;;;41.22;23.63;;;281.60;1945.60;;;;;;5071068;28;20043;-66
2021/03/15 00:37:32;;;;;;;21.30;14.18;;;281.70;1945.60;;;;;;5071411;28;20040;-65
2021/03/15 00:39:58;;;;;;;20.88;13.57;;;281.70;1945.60;;;;;;5064795;28;20527;-67
2021/03/15 00:42:24;;;;;;;19.50;13.40;;;281.70;1920.00;;;;;;5077765;28;20024;-69
2021/03/15 00:44:49;;;;;;;19.10;12.00;;;281.70;1920.00;;;;;;5090637;28;20506;-69
2021/03/15 00:47:15;;;;;;;12.60;9.30;;;281.70;1894.40;;;;;;5088882;28;20095;-68
2021/03/15 00:49:41;;;;;;;14.80;10.38;;;256.80;1920.00;;;;;;5087272;28;20020;-69
2021/03/15 00:52:07;;;;;;;10.77;7.93;;;256.90;1920.00;;;;;;5089261;28;20463;-70
2021/03/15 00:54:32;;;;;;;11.75;9.10;;;256.70;1894.40;;;;;;5092442;28;20103;-69
2021/03/15 00:56:58;;;;;;;15.23;10.80;;;256.40;1920.00;;;;;;5075411;28;20032;-70
2021/03/15 00:59:24;;;;;;;10.75;7.47;;;256.10;1996.80;;;;;;5075269;28;20012;-70
2021/03/15 01:01:50;;;;;;;12.30;8.32;;;256.30;1971.20;;;;;;5075098;28;20020;-69
2021/03/15 01:04:16;;;;;;;10.32;6.88;;;256.40;1945.60;;;;;;5075241;28;20379;-69
2021/03/15 01:06:42;;;;;;;12.55;8.75;;;256.40;1920.00;;;;;;5074939;28;20017;-67
2021/03/15 01:09:09;;;;;;;9.35;5.85;;;256.50;1920.00;;;;;;5074965;28;20051;-67
2021/03/15 01:11:35;;;;;;;7.78;5.53;;;;;;;;;;5074913;28;20482;-66
2021/03/15 01:14:01;;;;;;;8.48;5.20;;;256.30;1868.80;;;;;;5070713;28;20032;-68
2021/03/15 01:16:27;;;;;;;10.60;5.65;;;256.20;1894.40;;;;;;5074992;28;20514;-66
2021/03/15 01:18:53;;;;;;;14.48;7.63;;;256.10;1868.80;;;;;;5074719;28;20020;-65
2021/03/15 01:21:19;;;;;;;11.77;7.40;;;231.20;2048.00;;;;;;5074569;28;20467;-66
2021/03/15 01:23:44;;;;;;;9.35;6.03;;;231.30;1894.40;;;;;;5074713;28;20031;-66
2021/03/15 01:26:10;;;;;;;8.65;5.47;;;231.20;1920.00;;;;;;5074539;28;20144;-66
2021/03/15 01:28:36;;;;;;;6.72;4.60;;;231.20;1894.40;;;;;;5084784;28;20039;-66
2021/03/15 01:31:02;;;;;;;6.55;4.18;;;231.00;1868.80;;;;;;5070402;28;20012;-66
2021/03/15 01:33:28;;;;;;;7.15;4.00;;;;;;;;;;5074909;28;20021;-67
2021/03/15 01:35:54;;;;;;;5.43;3.70;;;;;;;;;;5074260;28;20119;-66
2021/03/15 01:38:20;;;;;;;5.75;3.97;;;;;;;;;;5057389;28;20112;-63
2021/03/15 01:40:46;;;;;;;5.22;3.60;;;;;;;;;;5070697;28;20024;-66
2021/03/15 01:43:13;;;;;;;8.88;4.63;;;;;;;;;;5078338;28;20441;-67
2021/03/15 01:45:39;;;;;;;10.27;5.90;;;;;;;;;;5094760;28;20058;-64
2021/03/15 01:48:11;;;;;;;10.15;6.00;;;;;;;;;;5093318;28;20016;-67
2021/03/15 01:50:37;;;;;;;9.25;4.93;;;;;;;;;;5094606;28;20020;-67
2021/03/15 01:53:03;;;;;;;7.50;4.72;;;;;;;;;;5094635;28;20904;-67
2021/03/15 01:55:29;;;;;;;11.80;6.45;;;;;;;;;;5094431;28;20051;-68
2021/03/15 01:57:58;;;;;;;6.68;4.15;;;;;;;;;;5094436;28;20019;-68
2021/03/15 02:00:24;;;;;;;6.47;3.90;;;;;;;;;;5094370;28;20028;-68
2021/03/15 02:03:06;;;;;;;7.13;3.50;;;;;;;;;;5094416;28;20542;-67
2021/03/15 02:05:33;;;;;;;8.20;4.53;;;;;;;;;;5066093;28;20107;-67
2021/03/15 02:07:59;;;;;;;6.45;4.18;;;;;;;;;;5094571;28;20043;-67
2021/03/15 02:10:25;;;;;;;7.18;4.47;;;;;;;;;;5094083;28;20032;-67
2021/03/15 02:12:51;;;;;;;6.90;4.28;;;;;;;;;;5093994;28;20028;-68
2021/03/15 02:15:44;;;;;;;5.72;3.85;;;;;;;;;;5093975;28;20044;-68
2021/03/15 02:18:13;;;;;;;8.98;5.05;;;;;;;;;;5011805;28;20061;-67
2021/03/15 02:20:39;;;;;;;7.43;4.68;;;;;;;;;;5011775;28;20528;-68
2021/03/15 02:23:11;;;;;;;6.05;4.03;;;;;;;;;;5011800;28;20042;-68
2021/03/15 02:25:49;;;;;;;6.70;4.30;;;;;;;;;;5011782;28;20496;-67
2021/03/15 02:28:15;;;;;;;6.15;3.70;;;;;;;;;;5011858;28;20060;-68
2021/03/15 02:30:47;;;;;;;6.22;3.47;;;;;;;;;;5011731;28;20484;-68
2021/03/15 02:33:29;;;;;;;6.43;4.45;;;;;;;;;;5011720;28;20440;-69
2021/03/15 02:35:55;;;;;;;6.55;4.20;;;;;;;;;;5011330;28;20048;-67
2021/03/15 02:38:23;;;;;;;6.22;4.40;;;;;;;;;;5011430;28;20080;-64
2021/03/15 02:40:55;;;;;;;5.93;3.75;;;;;;;;;;5011464;28;20045;-66
2021/03/15 02:43:24;;;;;;;7.68;4.88;;;;;;;;;;4997274;28;20064;-67
2021/03/15 02:45:51;;;;;;;6.50;4.13;;;;;;;;;;5011515;28;20035;-68
2021/03/15 02:48:18;;;;;;;6.55;4.55;;;;;;;;;;5011096;28;20527;-67
2021/03/15 02:50:45;;;;;;;6.28;3.67;;;;;;;;;;5011387;28;20410;-65
2021/03/15 02:53:14;;;;;;;5.55;3.75;;;;;;;;;;5011301;28;20030;-68
2021/03/15 02:55:41;;;;;;;4.55;3.20;;;;;;;;;;5076833;28;20048;-67
2021/03/15 02:58:07;;;;;;;5.07;3.20;;;;;;;;;;5093143;28;20027;-61
2021/03/15 03:00:33;;;;;;;5.00;3.47;;;;;;;;;;5093231;28;20028;-69
2021/03/15 03:03:01;;;;;;;5.93;3.92;;;;;;;;;;5093010;28;20132;-64
2021/03/15 03:05:27;;;;;;;4.75;3.15;;;;;;;;;;5092796;28;20131;-66
2021/03/15 03:07:54;;;;;;;5.28;3.08;;;;;;;;;;5093136;28;20027;-60
2021/03/15 03:10:22;;;;;;;5.00;3.05;;;;;;;;;;5092890;28;20078;-68
2021/03/15 03:12:50;;;;;;;6.60;4.13;;;;;;;;;;5092871;28;20382;-68
2021/03/15 03:15:20;;;;;;;5.72;3.85;;;180.10;1894.40;;;;;;5093052;28;20444;-64
2021/03/15 03:17:48;;;;;;;7.40;4.57;;;180.00;1894.40;;;;;;5092255;28;20724;-68
2021/03/15 03:20:16;;;;;;;6.03;3.40;;;180.00;1920.00;;;;;;5092882;28;20032;-62
2021/03/15 03:22:45;;;;;;;5.47;3.58;;;180.00;1920.00;;;;;;5092929;28;20043;-66
2021/03/15 03:25:13;;;;;;;8.48;5.70;;;;;;;;;;5092828;28;20020;-65
2021/03/15 03:27:41;;;;;;;5.38;3.97;;;204.80;1945.60;;;;;;5064972;28;20500;-66
2021/03/15 03:30:08;;;;;;;8.38;4.05;;;;;;;;;;5092710;28;20031;-64
2021/03/15 03:32:36;;;;;;;15.50;9.18;;;204.90;1920.00;;;;;;5092592;28;20023;-61
2021/03/15 03:35:04;;;;;;;5.38;3.78;;;180.10;1945.60;;;;;;5092541;28;20433;-66
2021/03/15 03:37:30;;;;;;;7.95;4.30;;;;;;;;;;5092329;28;20095;-66
2021/03/15 03:39:57;;;;;;;4.57;3.30;;;;;;;;;;5092707;28;20107;-66
2021/03/15 03:42:23;;;;;;;6.22;3.60;;;;;;;;;;5080748;28;20170;-65
2021/03/15 03:44:50;;;;;;;4.35;3.28;;;;;;;;;;5089797;28;20048;-62
2021/03/15 03:47:17;;;;;;;5.03;3.55;;;;;;;;;;5092782;28;20036;-62
2021/03/15 03:49:43;;;;;;;5.03;3.75;;;;;;;;;;5092586;28;20051;-63
2021/03/15 03:52:09;;;;;;;5.55;3.78;;;;;;;;;;5092495;28;20028;-62
2021/03/15 03:54:39;;;;;;;5.97;3.42;;;;;;;;;;5092366;28;20111;-62
2021/03/15 03:57:05;;;;;;;3.88;2.95;;;;;;;;;;5065315;28;20051;-67
2021/03/15 03:59:33;;;;;;;4.40;3.58;;;;;;;;;;5092676;28;20052;-62
2021/03/15 04:02:01;;;;;;;5.00;3.92;;;;;;;;;;5092459;28;20020;-65
2021/03/15 04:04:29;;;;;;;5.45;3.60;;;;;;;;;;5092551;28;20016;-63
2021/03/15 04:06:55;;;;;;;7.57;4.78;;;;;;;;;;5092214;28;20016;-67
2021/03/15 04:09:28;;;;;;;8.25;5.40;;;;;;;;;;5092423;28;20028;-64
2021/03/15 04:11:56;;;;;;;5.85;4.10;;;;;;;;;;5092168;28;20027;-67
2021/03/15 04:14:25;;;;;;;7.57;4.60;;;;;;;;;;5091992;28;20038;-62
2021/03/15 04:16:52;;;;;;;6.10;4.28;;;;;;;;;;5092034;28;20032;-64
2021/03/15 04:19:22;;;;;;;5.50;4.07;;;;;;;;;;5092216;28;20054;-69
2021/03/15 04:21:49;;;;;;;7.20;4.63;;;;;;;;;;5092224;28;20036;-65
2021/03/15 04:24:17;;;;;;;4.68;3.72;;;;;;;;;;5092411;28;20367;-68
2021/03/15 04:26:44;;;;;;;5.72;4.30;;;;;;;;;;5092232;28;20089;-62
2021/03/15 04:29:11;;;;;;;5.25;3.50;;;;;;;;;;5095523;28;20016;-62
2021/03/15 04:31:37;;;;;;;5.03;3.28;;;;;;;;;;5096104;28;20490;-63
2021/03/15 04:34:03;;;;;;;6.32;4.07;;;;;;;;;;5096035;28;20028;-63
2021/03/15 04:36:30;;;;;;;4.70;3.53;;;;;;;;;;5095752;28;20032;-66
2021/03/15 04:38:57;;;;;;;6.18;4.15;;;;;;;;;;5095797;28;20474;-63
2021/03/15 04:41:23;;;;;;;7.82;5.80;;;;;;;;;;5092427;28;20099;-65
2021/03/15 04:43:50;;;;;;;19.05;11.13;;;179.40;1971.20;;;;;;5084728;28;20054;-65
2021/03/15 04:46:17;;;;;;;9.55;7.00;;;179.50;1945.60;;;;;;5095596;28;20039;-65
2021/03/15 04:48:44;;;;;;;6.22;4.80;;;179.70;1945.60;;;;;;5095737;28;20027;-66
2021/03/15 04:51:10;;;;;;;8.32;5.75;;;179.60;1920.00;;;;;;5095708;28;20363;-69
2021/03/15 04:53:39;;;;;;;6.78;4.50;;;179.60;1945.60;;;;;;5095455;28;20049;-62
2021/03/15 04:56:12;;;;;;;10.13;6.60;;;179.40;1945.60;;;;;;5095542;28;20028;-68
2021/03/15 04:58:40;;;;;;;7.00;4.88;;;179.40;1971.20;;;;;;5095376;28;20023;-64
2021/03/15 05:01:07;;;;;;;7.60;5.18;;;179.50;1945.60;;;;;;5095810;28;20360;-71
2021/03/15 05:03:35;;;;;;;6.57;4.80;;;179.70;1920.00;;;;;;5095388;28;20019;-63
2021/03/15 05:06:01;;;;;;;8.60;6.15;;;179.30;1971.20;;;;;;5095380;28;20024;-70
2021/03/15 05:08:30;;;;;;;13.75;8.55;;;154.20;2048.00;;;;;;5095145;28;20077;-70
2021/03/15 05:11:00;;;;;;;7.82;5.45;;;179.20;1971.20;;;;;;5095322;28;20026;-67
2021/03/15 05:13:26;;;;;;;11.07;8.05;;;154.50;1996.80;;;;;;5095119;28;20386;-60
2021/03/15 05:15:52;;;;;;;16.95;11.15;;;154.40;1996.80;;;;;;5095185;28;20395;-61
2021/03/15 05:18:19;;;;;;;14.40;9.65;;;179.20;1996.80;;;;;;5095513;28;20060;-61
2021/03/15 05:20:46;;;;;;;20.63;13.15;;;179.40;1971.20;;;;;;5095131;28;20016;-63
2021/03/15 05:23:13;;;;;;;11.40;7.63;;;179.40;1971.20;;;;;;5094876;28;20021;-61
2021/03/15 05:25:42;;;;;;;12.43;7.97;;;179.40;1971.20;;;;;;5094816;28;20059;-61
2021/03/15 05:28:15;;;;;;;11.77;8.65;;;179.50;1971.20;;;;;;5094956;28;20029;-61
2021/03/15 05:30:42;;;;;;;17.80;12.35;;;179.60;1945.60;;;;;;5094764;28;20027;-61
2021/03/15 05:33:13;;;;;;;15.98;12.27;;;179.50;1971.20;;;;;;5094999;28;20017;-64
2021/03/15 05:35:41;;;;;;;18.00;12.00;;;179.70;1945.60;;;;;;5094676;28;20036;-63
2021/03/15 05:38:08;;;;;;;15.90;11.18;;;179.70;1945.60;;;;;;5094709;28;20013;-62
2021/03/15 05:40:37;;;;;;;17.48;10.32;;;179.80;1920.00;;;;;;5094017;28;20016;-61
2021/03/15 05:43:34;;;;;;;18.92;10.02;;;179.80;1945.60;;;;;;5080038;28;20040;-61
2021/03/15 05:46:40;;;;;;;19.58;12.60;;;179.90;1945.60;;;;;;5095035;28;20047;-63
2021/03/15 05:49:27;;;;;;;11.60;7.65;;;179.90;1945.60;;;;;;5076169;28;20012;-62
2021/03/15 05:52:17;;;;;;;11.38;8.18;;;179.80;1945.60;;;;;;5093006;28;20479;-66
2021/03/15 05:55:12;;;;;;;19.58;17.02;;;179.80;1945.60;;;;;;5094236;28;20093;-65
2021/03/15 05:57:49;;;;;;;11.50;8.02;;;179.70;1945.60;;;;;;5012226;28;20038;-64
2021/03/15 06:00:31;;;;;;;14.23;10.05;;;179.70;1945.60;;;;;;5012120;28;20604;-62
2021/03/15 06:03:21;;;;;;;;;;;179.80;1945.60;;;;;;5012694;28;20034;-66
2021/03/15 06:05:48;;;;;;;15.23;10.48;;;179.80;1945.60;;;;;;5012111;28;19913;-65
2021/03/15 06:08:20;;;;;;;16.02;10.63;;;179.80;1920.00;;;;;;5011716;28;20443;-64
2021/03/15 06:11:07;;;;;;;13.65;9.15;;;180.00;1920.00;;;;;;5011962;28;20152;-66
2021/03/15 06:13:35;;;;;;;10.80;7.50;;;180.10;1920.00;;;;;;5011570;28;20476;-65
2021/03/15 06:16:04;;;;;;;10.27;7.88;;;180.00;1945.60;;;;;;5011748;28;20401;-64
2021/03/15 06:18:30;;;;;;;9.40;7.32;;;180.00;1894.40;;;;;;5011639;28;20053;-60
2021/03/15 06:20:57;;;;;;;9.32;6.80;;;179.80;1920.00;;;;;;5012123;28;20389;-65
2021/03/15 06:23:24;;;;;;;11.73;8.50;;;179.80;1920.00;;;;;;5011917;28;20460;-72
2021/03/15 06:25:51;;;;;;;14.27;9.93;;;180.00;1920.00;;;;;;5012225;28;20049;-68
2021/03/15 06:28:18;;;;;;;10.98;9.50;;;180.00;1920.00;;;;;;5011599;28;20037;-62
2021/03/15 06:30:46;;;;;;;12.88;8.98;;;180.00;1894.40;;;;;;5011422;28;20022;-61
2021/03/15 06:33:13;;;;;;;18.48;12.52;;;180.00;1920.00;;;;;;5024290;28;20031;-63
2021/03/15 06:35:44;;;;;;;25.83;17.75;;;179.80;1945.60;;;;;;5093616;28;20036;-63
2021/03/15 06:38:10;;;;;;;16.50;12.10;;;179.90;1894.40;;;;;;5093334;28;20020;-61
2021/03/15 06:40:39;;;;;;;14.80;9.10;;;179.90;1894.40;;;;;;5093307;28;20368;-61
2021/03/15 06:43:06;;;;;;;16.27;11.15;;;180.10;1894.40;;;;;;5078695;28;20032;-64
2021/03/15 06:45:32;;;;;;;14.98;8.43;;;180.10;1920.00;;;;;;5093252;28;20035;-65
2021/03/15 06:48:02;;;;;;;13.52;8.43;;;179.70;1920.00;;;;;;5093558;28;20066;-65
2021/03/15 06:50:28;;;;;;;12.27;8.85;;;179.70;1920.00;;;;;;5092557;28;20058;-60
2021/03/15 06:52:55;;;;;;;13.40;7.90;;;179.80;1920.00;;;;;;5092206;28;20536;-61
2021/03/15 06:55:34;;;;;;;14.10;9.55;;;179.80;1894.40;;;;;;5092794;28;20075;-65
2021/03/15 06:58:00;;;;;;;17.15;11.05;;;179.90;1894.40;;;;;;5092801;28;20095;-64
2021/03/15 07:00:29;;;;;;;15.05;10.82;;;179.70;1920.00;;;;;;5085465;28;20064;-61
2021/03/15 07:03:05;;;;;;;17.83;11.98;;;179.60;1945.60;;;;;;5065278;28;20043;-63
2021/03/15 07:05:31;;;;;;;26.30;16.08;;;179.60;1920.00;;;;;;5072321;28;20021;-63
2021/03/15 07:07:59;;;;;;;26.20;16.30;;;179.80;1920.00;;;;;;5072218;28;20017;-65
2021/03/15 07:10:30;;;;;;;16.00;11.10;;;179.50;1971.20;;;;;;5072460;28;20035;-63
2021/03/15 07:13:11;;;;;;;14.70;11.77;;;179.50;1971.20;;;;;;5071958;28;20036;-61
2021/03/15 07:15:39;;;;;;;15.77;11.65;;;179.60;1945.60;;;;;;5072311;28;20064;-64
2021/03/15 07:18:20;;;;;;;19.23;13.15;;;179.80;1945.60;;;;;;5072329;28;20020;-62
2021/03/15 07:20:48;;;;;;;24.97;14.57;;;179.90;1920.00;;;;;;5072200;28;20027;-66
2021/03/15 07:23:15;;;;;;;20.42;13.63;;;179.90;1945.60;;;;;;5072257;28;20017;-63
2021/03/15 07:25:41;;;;;;;16.38;11.00;;;180.00;1945.60;;;;;;5072117;28;20032;-67
2021/03/15 07:28:08;;;;;;;18.65;11.93;;;179.70;1971.20;;;;;;5072173;28;20021;-65
2021/03/15 07:30:38;;;;;;;19.85;13.23;;;179.60;1971.20;;;;;;5072392;28;20024;-61
2021/03/15 07:33:16;;;;;;;16.23;11.15;;;179.70;1971.20;;;;;;5072002;28;20032;-67
2021/03/15 07:35:42;;;;;;;18.25;10.57;;;179.60;1996.80;;;;;;5071890;28;20032;-66
2021/03/15 07:38:08;;;;;;;13.88;10.27;;;179.30;1971.20;;;;;;5071800;28;20039;-67
2021/03/15 07:40:39;;;;;;;17.00;12.40;;;179.40;1996.80;;;;;;5071965;28;20490;-62
2021/03/15 07:43:13;;;;;;;17.83;12.85;;;179.50;2022.40;;;;;;5075165;28;20125;-64
2021/03/15 07:45:44;;;;;;;15.60;11.77;;;179.20;2022.40;;;;;;5092287;28;20024;-68
2021/03/15 07:48:11;;;;;;;;;;;179.50;1996.80;;;;;;5092525;28;20050;-68
2021/03/15 07:50:38;;;;;;;17.65;13.27;;;179.50;2022.40;;;;;;5092122;28;20318;-62
2021/03/15 07:53:07;;;;;;;23.08;13.63;;;179.70;1971.20;;;;;;5091921;28;20050;-68
2021/03/15 07:55:42;;;;;;;23.73;15.32;;;179.50;1971.20;;;;;;5091987;28;20490;-66
2021/03/15 07:58:25;;;;;;;33.40;22.52;;;179.50;1996.80;;;;;;5092061;28;20028;-62
2021/03/15 08:00:53;;;;;;;24.65;16.95;;;179.40;2022.40;;;;;;5092121;28;20489;-68
2021/03/15 08:03:19;;;;;;;31.25;21.17;;;179.60;2022.40;;;;;;5094234;28;20309;-68
2021/03/15 08:05:47;;;;;;;27.70;18.08;;;179.80;2022.40;;;;;;5094913;28;20027;-66
2021/03/15 08:08:12;;;;;;;18.50;12.75;;;179.70;1996.80;;;;;;5095917;28;20370;-68
2021/03/15 08:10:41;;;;;;;22.98;15.70;;;179.70;1971.20;;;;;;5094790;28;20043;-60
2021/03/15 08:13:07;;;;;;;27.67;16.95;;;179.90;1996.80;;;;;;5096085;28;20028;-64
2021/03/15 08:15:34;;;;;;;28.90;19.63;;;179.70;1996.80;;;;;;5095886;28;20059;-64
2021/03/15 08:18:00;;;;;;;28.42;15.63;;;179.90;1971.20;;;;;;5095900;28;20527;-64
2021/03/15 08:20:27;;;;;;;23.50;15.60;;;179.70;1971.20;;;;;;5095954;28;20063;-66
2021/03/15 08:22:57;;;;;;;18.42;12.95;;;179.80;1971.20;;;;;;5094494;28;20479;-65
2021/03/15 08:25:24;;;;;;;20.73;14.32;;;179.60;1971.20;;;;;;5095738;28;20036;-64
2021/03/15 08:27:54;;;;;;;26.38;18.38;;;179.20;2048.00;;;;;;5095727;28;20028;-64
2021/03/15 08:30:28;;;;;;;21.58;15.05;;;179.50;2022.40;;;;;;5081190;28;20028;-65
2021/03/15 08:32:54;;;;;;;21.27;14.15;;;179.40;2048.00;;;;;;5075564;28;20016;-67
2021/03/15 08:35:21;;;;;;;12.95;10.05;;;179.30;2022.40;;;;;;5075339;28;20528;-67
2021/03/15 08:37:59;;;;;;;16.30;12.02;;;179.30;1996.80;;;;;;5074923;28;20028;-65
2021/03/15 08:40:41;;;;;;;16.13;11.38;;;179.60;1996.80;;;;;;5075211;28;20024;-68
2021/03/15 08:43:18;;;;;;;15.43;10.80;;;179.40;2022.40;;;;;;5075744;28;20032;-68
2021/03/15 08:45:47;;;;;;;16.75;10.18;;;179.40;1996.80;;;;;;5095594;28;20040;-67
2021/03/15 08:48:13;;;;;;;16.85;12.60;;;179.40;2022.40;;;;;;5095537;28;20029;-68
2021/03/15 08:50:38;;;;;;;16.35;12.13;;;179.40;1996.80;;;;;;5095333;28;20102;-67
2021/03/15 08:53:04;;;;;;;20.63;12.80;;;179.40;2022.40;;;;;;5095103;28;20070;-68
2021/03/15 08:55:47;;;;;;;22.67;15.30;;;179.40;1971.20;;;;;;5095184;28;20529;-65
2021/03/15 08:58:35;;;;;;;24.52;15.68;;;179.50;1996.80;;;;;;5095260;28;20471;-63
2021/03/15 09:01:01;;;;;;;23.52;17.52;;;179.50;1996.80;;;;;;5095294;28;20048;-66
2021/03/15 09:03:45;;;;;;;29.10;17.92;;;179.60;2022.40;;;;;;5095112;28;20020;-67
2021/03/15 09:06:11;;;;;;;18.83;12.95;;;179.70;1971.20;;;;;;5095047;28;20096;-66
2021/03/15 09:08:55;;;;;;;25.67;15.48;;;179.50;1971.20;;;;;;5094885;28;20098;-62
2021/03/15 09:11:36;;;;;;;26.08;16.85;;;179.70;1996.80;;;;;;5095052;28;20027;-68
2021/03/15 09:14:35;;;;;;;23.05;14.70;;;179.30;2022.40;;;;;;5091325;28;20089;-66
2021/03/15 09:17:15;;;;;;;29.50;19.45;;;179.30;1996.80;;;;;;5093388;28;20044;-63
2021/03/15 09:19:47;;;;;;;63.10;42.33;;;179.40;1996.80;;;;;;5091784;28;20044;-64
2021/03/15 09:22:16;;;;;;;100.75;67.00;;;179.40;2022.40;;;;;;5089872;28;20017;-61
2021/03/15 09:24:44;;;;;;;47.55;32.47;;;179.60;1996.80;;;;;;5092322;28;20027;-62
2021/03/15 09:27:12;;;;;;;70.22;48.13;;;179.70;1996.80;;;;;;5090897;28;20042;-63
2021/03/15 09:29:38;;;;;;;49.67;33.20;;;179.80;1971.20;;;;;;5085770;28;20028;-62
2021/03/15 09:32:11;;;;;;;77.13;64.55;;;179.70;1971.20;;;;;;5073028;28;20036;-61
2021/03/15 09:34:37;;;;;;;70.22;44.55;;;179.60;1971.20;;;;;;5072290;28;20028;-63
2021/03/15 09:37:05;;;;;;;57.13;37.28;;;179.60;2022.40;;;;;;5073315;28;20028;-61
2021/03/15 09:39:32;;;;;;;39.30;23.73;;;179.80;1971.20;;;;;;5073771;28;20112;-61
2021/03/15 09:41:59;;;;;;;41.40;30.42;;;179.80;1945.60;;;;;;5073332;28;20016;-62
2021/03/15 09:44:27;;;;;;;42.80;26.10;;;179.80;1996.80;;;;;;5087865;28;20048;-63
2021/03/15 09:46:54;;;;;;;45.70;30.70;;;179.70;1971.20;;;;;;5094185;28;20024;-65
2021/03/15 09:49:38;;;;;;;35.97;22.80;;;179.50;1996.80;;;;;;5093535;28;20032;-64
2021/03/15 09:52:17;;;;;;;28.52;19.80;;;179.50;1996.80;;;;;;5068370;28;20433;-62
2021/03/15 09:54:45;;;;;;;24.88;17.45;;;179.50;1971.20;;;;;;5093337;28;20040;-62
2021/03/15 09:57:13;;;;;;;25.85;18.52;;;179.20;2022.40;;;;;;5093401;28;20012;-62
2021/03/15 09:59:39;;;;;;;71.00;49.35;;;179.50;1996.80;;;;;;5093725;28;20173;-62
2021/03/15 10:02:05;;;;;;;46.13;36.75;;;179.50;1996.80;;;;;;5084978;28;20027;-62
2021/03/15 10:04:38;;;;;;;40.25;27.88;;;179.60;1971.20;;;;;;5073332;28;20036;-62
2021/03/15 10:07:10;;;;;;;67.20;44.67;;;179.60;1996.80;;;;;;5073022;28;20459;-63
2021/03/15 10:09:39;;;;;;;37.50;33.47;;;179.70;1996.80;;;;;;5070984;28;20032;-63
2021/03/15 10:12:14;;;;;;;60.42;45.38;;;179.80;1971.20;;;;;;5087916;28;20017;-65
2021/03/15 10:14:40;;;;;;;45.28;32.63;;;179.90;1945.60;;;;;;5081924;28;20043;-62
2021/03/15 10:17:06;;;;;;;25.58;18.45;;;179.70;1996.80;;;;;;5071808;28;20032;-66
2021/03/15 10:19:32;;;;;;;41.70;31.73;;;179.60;1971.20;;;;;;5073271;28;20041;-67
2021/03/15 10:22:28;;;;;;;40.85;27.40;;;179.80;1996.80;;;;;;5073075;28;20354;-67
2021/03/15 10:24:53;;;;;;;23.85;20.13;;;179.80;1971.20;;;;;;4991546;28;20059;-69
2021/03/15 10:27:23;;;;;;;29.80;21.15;;;179.40;1971.20;;;;;;4991958;28;20141;-71
2021/03/15 10:30:00;;;;;;;42.60;35.92;;;179.70;1971.20;;;;;;4991856;28;20125;-69
2021/03/15 10:32:27;;;;;;;23.02;16.00;;;179.70;1996.80;;;;;;4975912;28;20516;-70
2021/03/15 10:34:58;;;;;;;30.85;25.05;;;179.60;1996.80;;;;;;5008387;28;20534;-67
2021/03/15 10:37:26;;;;;;;21.75;17.92;;;179.70;1996.80;;;;;;5006607;28;20405;-66
2021/03/15 10:39:53;;;;;;;23.67;15.27;;;179.90;1971.20;;;;;;5009018;28;20033;-67
2021/03/15 10:42:21;;;;;;;29.25;19.60;;;179.80;1996.80;;;;;;5008887;28;20136;-67
2021/03/15 10:44:48;;;;;;;34.83;22.42;;;179.90;1996.80;;;;;;5005569;28;20061;-65
2021/03/15 10:47:15;;;;;;;28.83;18.48;;;180.00;1996.80;;;;;;5001611;28;20468;-67
2021/03/15 10:49:42;;;;;;;19.40;12.18;;;179.80;1971.20;;;;;;4991268;28;20022;-64
2021/03/15 10:52:24;;;;;;;21.52;14.18;;;179.60;1996.80;;;;;;4997492;28;20033;-68
2021/03/15 10:54:50;;;;;;;30.88;20.73;;;179.60;1996.80;;;;;;4992669;28;20086;-66
2021/03/15 10:57:18;;;;;;;21.92;15.00;;;179.70;1996.80;;;;;;4988428;28;20523;-62
2021/03/15 10:59:46;;;;;;;28.90;18.25;;;179.40;1996.80;;;;;;4990741;28;20113;-63
2021/03/15 11:02:26;;;;;;;22.52;14.20;;;179.60;1996.80;;;;;;5061432;28;20033;-63
2021/03/15 11:04:57;;;;;;;18.17;12.90;;;179.40;1996.80;;;;;;5072588;28;20430;-67
2021/03/15 11:07:26;;;;;;;20.40;14.03;;;154.50;2048.00;;;;;;5072683;28;20035;-66
2021/03/15 11:10:07;;;;;;;30.25;19.67;;;154.20;2099.20;;;;;;5072303;28;20032;-67
2021/03/15 11:12:37;;;;;;;30.25;17.98;;;179.20;2048.00;;;;;;5069170;28;20094;-65
2021/03/15 11:15:13;;;;;;;30.60;18.92;;;179.30;2048.00;;;;;;5072096;28;20040;-66
2021/03/15 11:17:40;;;;;;;27.27;17.45;;;179.50;2022.40;;;;;;5070900;28;20082;-65
2021/03/15 11:20:09;;;;;;;27.00;17.90;;;179.70;1971.20;;;;;;5072143;28;20027;-63
2021/03/15 11:22:51;;;;;;;33.55;21.42;;;179.60;1971.20;;;;;;5072140;28;20020;-65
2021/03/15 11:25:18;;;;;;;29.10;19.52;;;179.60;1971.20;;;;;;5072194;28;20050;-63
2021/03/15 11:27:49;;;;;;;32.28;20.35;;;179.50;1971.20;;;;;;5061630;28;20032;-63
2021/03/15 11:30:26;;;;;;;25.20;17.38;;;179.70;1996.80;;;;;;5072157;28;20021;-66
2021/03/15 11:33:04;;;;;;;26.10;18.23;;;179.70;1971.20;;;;;;5068220;28;20031;-66
2021/03/15 11:35:31;;;;;;;40.10;26.00;;;179.70;1971.20;;;;;;5071876;28;20111;-65
2021/03/15 11:37:58;;;;;;;27.95;19.60;;;179.70;1996.80;;;;;;5071391;28;20530;-65
2021/03/15 11:40:29;;;;;;;24.75;18.55;;;179.60;1996.80;;;;;;5071880;28;20466;-64
2021/03/15 11:42:55;;;;;;;22.27;16.93;;;179.90;1971.20;;;;;;5073957;28;20441;-66
2021/03/15 11:45:23;;;;;;;21.27;15.27;;;179.90;1971.20;;;;;;5092188;28;20032;-63
2021/03/15 11:47:49;;;;;;;32.22;20.20;;;179.90;1971.20;;;;;;5092220;28;20422;-64
2021/03/15 11:50:15;;;;;;;28.05;20.83;;;180.00;1945.60;;;;;;5091966;28;20095;-64
2021/03/15 11:52:41;;;;;;;29.17;20.20;;;180.10;1971.20;;;;;;5092303;28;20048;-63
2021/03/15 11:55:11;;;;;;;28.95;19.95;;;179.80;1996.80;;;;;;5091767;28;20081;-63
2021/03/15 11:57:37;;;;;;;28.05;17.80;;;179.80;1996.80;;;;;;5092157;28;20081;-66
2021/03/15 12:00:09;;;;;;;26.52;17.50;;;179.90;1996.80;;;;;;5091944;28;20067;-63
2021/03/15 12:02:36;;;;;;;25.00;15.50;;;180.10;1996.80;;;;;;5091819;28;20044;-63
2021/03/15 12:05:06;;;;;;;22.75;14.02;;;204.80;1945.60;;;;;;5075738;28;20043;-62
2021/03/15 12:07:32;;;;;;;23.70;16.30;;;180.10;1945.60;;;;;;5071908;28;20016;-64
2021/03/15 12:09:57;;;;;;;30.98;18.27;;;179.90;1996.80;;;;;;5071787;28;20031;-65
2021/03/15 12:12:24;;;;;;;32.42;20.83;;;180.00;1971.20;;;;;;5070044;28;20040;-63
2021/03/15 12:14:50;;;;;;;24.88;16.95;;;180.10;1996.80;;;;;;5071690;28;20043;-66
2021/03/15 12:17:16;;;;;;;26.13;17.38;;;179.70;2022.40;;;;;;5071486;28;20017;-66
2021/03/15 12:19:42;;;;;;;25.08;18.08;;;179.50;2048.00;;;;;;5071650;28;20036;-65
2021/03/15 12:22:07;;;;;;;24.30;16.23;;;179.70;2022.40;;;;;;5071462;28;20036;-66
2021/03/15 12:24:33;;;;;;;28.02;18.45;;;179.50;2022.40;;;;;;5071697;28;20058;-66
2021/03/15 12:26:59;;;;;;;44.65;30.55;;;179.80;1996.80;;;;;;5086343;28;20028;-66
2021/03/15 12:29:24;;;;;;;27.85;20.67;;;180.00;1996.80;;;;;;5091981;28;20024;-67
2021/03/15 12:31:50;;;;;;;41.92;36.22;;;179.80;1996.80;;;;;;5092059;28;20024;-64
2021/03/15 12:34:17;;;;;;;26.08;19.13;;;179.90;1996.80;;;;;;5086617;28;20067;-66
2021/03/15 12:36:42;;;;;;;26.83;19.90;;;179.90;1971.20;;;;;;5082411;28;20144;-62
2021/03/15 12:39:08;;;;;;;46.63;33.10;;;179.90;2022.40;;;;;;5091442;28;20057;-66
2021/03/15 12:41:34;;;;;;;25.20;18.02;;;180.10;2022.40;;;;;;5086776;28;20086;-66
2021/03/15 12:43:59;;;;;;;21.98;17.80;;;204.80;1971.20;;;;;;5082081;28;20083;-66
2021/03/15 12:46:26;;;;;;;21.92;16.40;;;204.90;1971.20;;;;;;5091509;28;20054;-65